x

Fred Howard Park, Fl (fhpf1) Weather Station

10:54am - Tue 19th Sep 2017 All times are EDT. -4 hours from GMT.

  • Wind
    11mph, 13mph gusts
  • Air Temp 80°f
  • Sea Pressure 1017mb
  • Fred Howard Park, Fl
  • Fred Howard Park, Fl

More Historic Weather Station data

Upgrade to MSW Pro to gain access to the past 30 days of data for over 8000 Wavebouys and Weather Stations around the globe.

Join

Comparision Forecast

View Surf forecast
   
Tue 09/19 10:54am 11 13 mph 1017mb 80f
10:48am 11 13 mph 1017mb 80f
9:54am 8 10 mph 1016.6mb 79f
9:48am 7 8 mph 1016.7mb 78f
8:54am 3 5 mph 1016.6mb 76f
8:48am 2 5 mph 1016.6mb 76f
7:54am 1 3 mph 1016mb 75f
7:48am 2 3 mph 1015.9mb 75f
6:54am 2 5 mph 1015.7mb 75f
6:48am 2 3 mph 1015.7mb 75f
5:54am 3 5 mph 1015.1mb 75f
5:48am 3 6 mph 1015.1mb 75f
4:54am 3 3 mph 1014.7mb 75f
4:48am 3 3 mph 1014.6mb 75f
3:54am 3 5 mph 1014.4mb 77f
3:48am 3 5 mph 1014.4mb 77f
2:54am 2 2 mph 1015.1mb 77f
2:48am 2 3 mph 1015.1mb 77f
1:54am 2 3 mph 1015.4mb 78f
1:48am 2 3 mph 1015.4mb 78f
12:54am 3 3 mph 1015.8mb 79f
12:48am 2 3 mph 1015.7mb 80f
Mon 09/18 11:54pm 3 5 mph 1015.7mb 80f
11:48pm 5 6 mph 1015.7mb 80f
10:54pm 5 6 mph 1015.7mb 81f
10:48pm 6 7 mph 1015.7mb 81f
9:54pm 6 7 mph 1015.4mb 82f
9:48pm 6 8 mph 1015.3mb 82f
8:54pm 14 17 mph 1015mb 83f
8:48pm 15 16 mph 1014.9mb 83f
7:54pm 17 20 mph 1014.6mb 83f
7:48pm 18 20 mph 1014.4mb 83f
6:54pm 17 21 mph 1014.4mb 84f
6:48pm 18 21 mph 1014.3mb 83f
5:54pm 16 18 mph 1014.1mb 84f
5:48pm 17 20 mph 1014.1mb 84f
4:54pm 16 20 mph 1014.3mb 83f
4:48pm 17 21 mph 1014.3mb 83f
3:54pm 16 21 mph 1014.6mb 83f
3:48pm 17 20 mph 1014.6mb 83f
2:54pm 16 20 mph 1015.2mb 83f
2:48pm 16 20 mph 1015.3mb 83f
1:54pm 16 18 mph 1015.9mb 83f
1:48pm 16 18 mph 1015.9mb 83f
12:54pm 14 17 mph 1016.6mb 83f
12:48pm 15 17 mph 1016.5mb 83f
11:54am 15 17 mph 1016.9mb 82f
11:48am 15 17 mph 1017mb 82f
10:54am 10 13 mph 1017.3mb 82f
10:48am 11 14 mph 1017.3mb 82f
9:54am 8 10 mph 1017.3mb 82f
9:48am 7 10 mph 1017.2mb 81f
8:54am 3 5 mph 1016.7mb 80f
8:48am 5 6 mph 1016.6mb 80f
7:54am 5 5 mph 1016mb 78f
7:48am 5 6 mph 1016mb 78f
6:54am 3 5 mph 1015.6mb 78f
6:48am 3 6 mph 1015.4mb 78f
5:54am 3 5 mph 1014.9mb 79f
5:48am 3 5 mph 1014.9mb 79f
4:54am 2 3 mph 1015mb 79f
4:48am 2 3 mph 1015mb 79f
3:54am 2 3 mph 1015.2mb 78f
3:48am 3 5 mph 1015.3mb 78f
2:54am 5 6 mph 1015.7mb 78f
2:48am 5 6 mph 1015.7mb 78f
1:54am 6 7 mph 1016mb 79f
1:48am 6 7 mph 1016mb 79f
12:54am 7 8 mph 1016.1mb 80f
12:48am 7 8 mph 1016.2mb 80f
Sun 09/17 11:54pm 11 15 mph 1016.6mb 83f
11:48pm 11 13 mph 1016.7mb 83f
9:54pm 15 17 mph 1016.2mb 83f
8:54pm 16 18 mph 1016mb 83f
8:48pm 17 20 mph 1015.9mb 83f
7:54pm 16 18 mph 1015.6mb 83f
7:48pm 16 18 mph 1015.5mb 83f
6:54pm 16 18 mph 1015.1mb 84f
6:48pm 16 18 mph 1015.1mb 84f
5:54pm 17 20 mph 1015.1mb 84f
5:48pm 17 21 mph 1015.1mb 83f
4:54pm 17 21 mph 1015.5mb 84f
4:48pm 17 21 mph 1015.6mb 84f
3:54pm 16 18 mph 1015.8mb 83f
3:48pm 16 17 mph 1015.8mb 84f
2:54pm 16 18 mph 1016.2mb 84f
1:54pm 15 16 mph 1017.1mb 84f
12:54pm 14 16 mph 1017.8mb 83f
12:48pm 14 15 mph 1017.9mb 83f
11:54am 13 15 mph 1018mb 83f
11:48am 13 14 mph 1018.1mb 82f
10:54am 7 11 mph 1018.4mb 83f
10:48am 7 10 mph 1018.4mb 83f
9:54am 9 13 mph 1018.2mb 81f
9:48am 9 11 mph 1018.2mb 81f
8:54am 7 8 mph 1017.9mb 79f
8:48am 7 8 mph 1017.9mb 79f
7:54am 6 8 mph 1017.3mb 77f
7:48am 6 7 mph 1017.3mb 77f
6:54am 5 6 mph 1017.1mb 77f
6:48am 5 6 mph 1017mb 77f
5:54am 5 6 mph 1016.4mb 78f
5:48am 5 6 mph 1016.3mb 78f
4:54am 5 7 mph 1016.1mb 78f
4:48am 5 7 mph 1016.1mb 78f
3:54am 3 5 mph 1016mb 77f
3:48am 3 6 mph 1016mb 77f
2:54am 3 5 mph 1016.2mb 78f
2:48am 5 6 mph 1016.3mb 78f
1:54am 5 5 mph 1016.5mb 79f
12:54am 6 8 mph 1016.7mb 79f
12:48am 6 8 mph 1016.7mb 80f
Sat 09/16 11:54pm 8 11 mph 1017mb 80f
11:48pm 9 11 mph 1017mb 80f
10:54pm 11 15 mph 1017.1mb 80f
10:48pm 13 15 mph 1017.2mb 80f
9:54pm 11 14 mph 1016.8mb 82f
9:48pm 11 13 mph 1016.8mb 81f
8:54pm 22 30 mph 1016.6mb 82f
8:48pm 22 30 mph 1016.5mb 82f
7:54pm 18 22 mph 1016mb 84f
7:48pm 17 21 mph 1015.9mb 84f
6:54pm 16 18 mph 1015.5mb 85f
6:48pm 15 17 mph 1015.6mb 85f
5:54pm 15 17 mph 1015.4mb 85f
5:48pm 16 18 mph 1015.4mb 85f
4:54pm 17 18 mph 1015.6mb 84f
4:48pm 17 20 mph 1015.6mb 85f
3:54pm 14 15 mph 1016.2mb 85f